sensor_id;sensor_type;location;lat;lon;timestamp;pressure;altitude;pressure_sealevel;temperature;humidity
67803;BME280;54601;51.378;-1.342;2022-09-21T00:00:07;101323.78;;;20.53;35.24
67803;BME280;54601;51.378;-1.342;2022-09-21T00:02:31;101322.65;;;20.45;35.33
67803;BME280;54601;51.378;-1.342;2022-09-21T00:04:57;101321.84;;;20.40;35.38
67803;BME280;54601;51.378;-1.342;2022-09-21T00:07:24;101320.75;;;20.41;35.35
67803;BME280;54601;51.378;-1.342;2022-09-21T00:09:49;101321.20;;;20.19;35.35
67803;BME280;54601;51.378;-1.342;2022-09-21T00:12:16;101321.71;;;20.42;35.33
67803;BME280;54601;51.378;-1.342;2022-09-21T00:14:41;101320.64;;;20.43;35.30
67803;BME280;54601;51.378;-1.342;2022-09-21T00:17:07;101322.91;;;20.47;35.24
67803;BME280;54601;51.378;-1.342;2022-09-21T00:19:34;101323.03;;;20.37;35.35
67803;BME280;54601;51.378;-1.342;2022-09-21T00:21:59;101322.68;;;20.36;35.38
67803;BME280;54601;51.378;-1.342;2022-09-21T00:24:25;101326.49;;;20.37;35.37
67803;BME280;54601;51.378;-1.342;2022-09-21T00:26:51;101325.60;;;20.36;35.35
67803;BME280;54601;51.378;-1.342;2022-09-21T00:29:17;101328.11;;;20.43;35.25
67803;BME280;54601;51.378;-1.342;2022-09-21T00:31:43;101325.66;;;20.59;35.38
67803;BME280;54601;51.378;-1.342;2022-09-21T00:34:09;101327.38;;;20.37;35.33
67803;BME280;54601;51.378;-1.342;2022-09-21T00:36:35;101327.01;;;19.92;35.32
67803;BME280;54601;51.378;-1.342;2022-09-21T00:39:02;101326.79;;;20.31;35.38
67803;BME280;54601;51.378;-1.342;2022-09-21T00:41:29;101326.28;;;19.87;35.38
67803;BME280;54601;51.378;-1.342;2022-09-21T00:46:25;101329.01;;;20.35;35.31
67803;BME280;54601;51.378;-1.342;2022-09-21T00:48:45;101326.86;;;20.34;35.30
67803;BME280;54601;51.378;-1.342;2022-09-21T00:51:12;101326.31;;;20.28;35.40
67803;BME280;54601;51.378;-1.342;2022-09-21T00:53:38;101325.68;;;20.36;35.28
67803;BME280;54601;51.378;-1.342;2022-09-21T00:56:04;101325.48;;;20.37;35.23
67803;BME280;54601;51.378;-1.342;2022-09-21T00:58:31;101323.75;;;20.40;35.20
67803;BME280;54601;51.378;-1.342;2022-09-21T01:00:56;101323.19;;;20.20;35.17
67803;BME280;54601;51.378;-1.342;2022-09-21T01:03:21;101322.17;;;20.29;35.34
67803;BME280;54601;51.378;-1.342;2022-09-21T01:05:47;101318.77;;;20.30;35.32
67803;BME280;54601;51.378;-1.342;2022-09-21T01:08:14;101319.83;;;20.03;35.39
67803;BME280;54601;51.378;-1.342;2022-09-21T01:10:48;101316.42;;;20.28;35.35
67803;BME280;54601;51.378;-1.342;2022-09-21T01:13:12;101315.05;;;20.38;35.19
67803;BME280;54601;51.378;-1.342;2022-09-21T01:15:37;101315.05;;;20.29;35.32
67803;BME280;54601;51.378;-1.342;2022-09-21T01:18:05;101314.46;;;20.03;35.38
67803;BME280;54601;51.378;-1.342;2022-09-21T01:20:34;101313.15;;;20.32;35.26
67803;BME280;54601;51.378;-1.342;2022-09-21T01:23:04;101315.94;;;20.29;35.29
67803;BME280;54601;51.378;-1.342;2022-09-21T01:25:26;101314.08;;;20.27;35.30
67803;BME280;54601;51.378;-1.342;2022-09-21T01:27:50;101313.02;;;20.29;35.29
67803;BME280;54601;51.378;-1.342;2022-09-21T01:30:10;101310.03;;;20.28;35.28
67803;BME280;54601;51.378;-1.342;2022-09-21T01:32:36;101311.68;;;20.19;35.39
67803;BME280;54601;51.378;-1.342;2022-09-21T01:35:02;101312.11;;;20.21;35.38
67803;BME280;54601;51.378;-1.342;2022-09-21T01:37:31;101311.47;;;20.21;35.38
67803;BME280;54601;51.378;-1.342;2022-09-21T01:39:55;101311.79;;;20.26;35.31
67803;BME280;54601;51.378;-1.342;2022-09-21T01:42:18;101311.80;;;20.26;35.28
67803;BME280;54601;51.378;-1.342;2022-09-21T01:44:44;101313.12;;;20.20;35.37
67803;BME280;54601;51.378;-1.342;2022-09-21T01:47:10;101311.78;;;20.22;35.35
67803;BME280;54601;51.378;-1.342;2022-09-21T01:49:38;101311.15;;;20.20;35.37
67803;BME280;54601;51.378;-1.342;2022-09-21T01:52:06;101310.73;;;19.95;35.38
67803;BME280;54601;51.378;-1.342;2022-09-21T01:54:32;101311.83;;;20.14;35.43
67803;BME280;54601;51.378;-1.342;2022-09-21T01:56:57;101311.40;;;20.29;35.19
67803;BME280;54601;51.378;-1.342;2022-09-21T01:59:24;101309.45;;;20.23;35.28
67803;BME280;54601;51.378;-1.342;2022-09-21T02:01:49;101309.83;;;20.20;35.28
67803;BME280;54601;51.378;-1.342;2022-09-21T02:04:12;101308.57;;;20.22;35.28
67803;BME280;54601;51.378;-1.342;2022-09-21T02:06:39;101307.45;;;20.23;35.27
67803;BME280;54601;51.378;-1.342;2022-09-21T02:09:03;101310.05;;;20.22;35.28
67803;BME280;54601;51.378;-1.342;2022-09-21T02:11:29;101310.01;;;20.10;35.44
67803;BME280;54601;51.378;-1.342;2022-09-21T02:13:55;101310.20;;;20.19;35.31
67803;BME280;54601;51.378;-1.342;2022-09-21T02:16:30;101310.87;;;20.15;35.36
67803;BME280;54601;51.378;-1.342;2022-09-21T02:18:52;101313.23;;;20.14;35.37
67803;BME280;54601;51.378;-1.342;2022-09-21T02:21:19;101312.25;;;20.26;35.22
67803;BME280;54601;51.378;-1.342;2022-09-21T02:23:44;101311.41;;;20.30;35.14
67803;BME280;54601;51.378;-1.342;2022-09-21T02:26:08;101312.94;;;20.24;35.24
67803;BME280;54601;51.378;-1.342;2022-09-21T02:28:37;101309.14;;;20.51;35.24
67803;BME280;54601;51.378;-1.342;2022-09-21T02:31:02;101309.37;;;20.24;35.23
67803;BME280;54601;51.378;-1.342;2022-09-21T02:33:27;101310.81;;;20.29;35.16
67803;BME280;54601;51.378;-1.342;2022-09-21T02:35:51;101306.52;;;20.34;35.08
67803;BME280;54601;51.378;-1.342;2022-09-21T02:38:20;101305.67;;;20.25;35.20
67803;BME280;54601;51.378;-1.342;2022-09-21T02:40:46;101302.27;;;20.28;35.18
67803;BME280;54601;51.378;-1.342;2022-09-21T02:43:09;101301.30;;;20.24;35.24
67803;BME280;54601;51.378;-1.342;2022-09-21T02:45:37;101297.34;;;20.31;35.12
67803;BME280;54601;51.378;-1.342;2022-09-21T02:48:02;101296.57;;;20.25;35.22
67803;BME280;54601;51.378;-1.342;2022-09-21T02:50:28;101296.16;;;20.14;35.35
67803;BME280;54601;51.378;-1.342;2022-09-21T02:52:52;101293.05;;;20.13;35.38
67803;BME280;54601;51.378;-1.342;2022-09-21T02:55:17;101291.00;;;20.49;35.24
67803;BME280;54601;51.378;-1.342;2022-09-21T02:57:44;101289.39;;;20.15;35.36
67803;BME280;54601;51.378;-1.342;2022-09-21T03:00:10;101288.49;;;20.24;35.22
67803;BME280;54601;51.378;-1.342;2022-09-21T03:02:36;101287.99;;;20.21;35.28
67803;BME280;54601;51.378;-1.342;2022-09-21T03:05:01;101285.44;;;20.15;35.36
67803;BME280;54601;51.378;-1.342;2022-09-21T03:07:27;101284.46;;;20.23;35.24
67803;BME280;54601;51.378;-1.342;2022-09-21T03:09:53;101281.80;;;20.11;35.40
67803;BME280;54601;51.378;-1.342;2022-09-21T03:12:19;101281.13;;;20.14;35.38
67803;BME280;54601;51.378;-1.342;2022-09-21T03:14:45;101279.55;;;20.47;35.27
67803;BME280;54601;51.378;-1.342;2022-09-21T03:17:11;101281.59;;;20.40;35.36
67803;BME280;54601;51.378;-1.342;2022-09-21T03:19:37;101281.03;;;20.48;35.24
67803;BME280;54601;51.378;-1.342;2022-09-21T03:22:03;101278.48;;;20.19;35.29
67803;BME280;54601;51.378;-1.342;2022-09-21T03:24:29;101279.43;;;20.41;35.35
67803;BME280;54601;51.378;-1.342;2022-09-21T03:26:55;101279.91;;;20.16;35.32
67803;BME280;54601;51.378;-1.342;2022-09-21T03:29:20;101277.19;;;20.19;35.28
67803;BME280;54601;51.378;-1.342;2022-09-21T03:31:46;101276.10;;;20.42;35.32
67803;BME280;54601;51.378;-1.342;2022-09-21T03:34:13;101276.06;;;20.19;35.27
67803;BME280;54601;51.378;-1.342;2022-09-21T03:36:38;101278.90;;;20.13;35.36
67803;BME280;54601;51.378;-1.342;2022-09-21T03:39:05;101273.37;;;20.36;35.39
67803;BME280;54601;51.378;-1.342;2022-09-21T03:41:31;101269.90;;;20.40;35.34
67803;BME280;54601;51.378;-1.342;2022-09-21T03:43:56;101270.92;;;20.07;35.42
67803;BME280;54601;51.378;-1.342;2022-09-21T03:46:23;101267.41;;;20.06;35.44
67803;BME280;54601;51.378;-1.342;2022-09-21T03:48:48;101265.74;;;20.14;35.35
67803;BME280;54601;51.378;-1.342;2022-09-21T03:51:14;101265.61;;;20.10;35.39
67803;BME280;54601;51.378;-1.342;2022-09-21T03:53:40;101260.94;;;20.14;35.31
67803;BME280;54601;51.378;-1.342;2022-09-21T03:56:06;101258.66;;;20.01;35.49
67803;BME280;54601;51.378;-1.342;2022-09-21T03:58:32;101261.76;;;20.08;35.39
67803;BME280;54601;51.378;-1.342;2022-09-21T04:01:00;101262.58;;;20.13;35.32
67803;BME280;54601;51.378;-1.342;2022-09-21T04:03:24;101262.73;;;20.36;35.37
67803;BME280;54601;51.378;-1.342;2022-09-21T04:05:50;101261.61;;;19.92;35.59
67803;BME280;54601;51.378;-1.342;2022-09-21T04:08:16;101257.41;;;20.09;35.36
67803;BME280;54601;51.378;-1.342;2022-09-21T04:10:42;101254.70;;;20.01;35.45
67803;BME280;54601;51.378;-1.342;2022-09-21T04:13:09;101251.45;;;20.03;35.42
67803;BME280;54601;51.378;-1.342;2022-09-21T04:15:34;101249.01;;;20.01;35.46
67803;BME280;54601;51.378;-1.342;2022-09-21T04:18:00;101243.44;;;20.24;35.50
67803;BME280;54601;51.378;-1.342;2022-09-21T04:20:26;101246.40;;;20.13;35.66
67803;BME280;54601;51.378;-1.342;2022-09-21T04:22:53;101246.03;;;19.88;35.62
67803;BME280;54601;51.378;-1.342;2022-09-21T04:25:18;101246.07;;;19.84;35.70
67803;BME280;54601;51.378;-1.342;2022-09-21T04:27:45;101246.41;;;20.12;35.64
67803;BME280;54601;51.378;-1.342;2022-09-21T04:30:12;101248.12;;;20.21;35.48
67803;BME280;54601;51.378;-1.342;2022-09-21T04:32:37;101251.89;;;19.96;35.46
67803;BME280;54601;51.378;-1.342;2022-09-21T04:35:03;101251.58;;;19.75;35.75
67803;BME280;54601;51.378;-1.342;2022-09-21T04:37:29;101250.51;;;20.01;35.74
67803;BME280;54601;51.378;-1.342;2022-09-21T04:39:55;101251.27;;;19.84;35.61
67803;BME280;54601;51.378;-1.342;2022-09-21T04:42:21;101257.42;;;19.79;35.68
67803;BME280;54601;51.378;-1.342;2022-09-21T04:44:47;101257.37;;;19.86;35.58
67803;BME280;54601;51.378;-1.342;2022-09-21T04:47:13;101259.87;;;19.79;35.66
67803;BME280;54601;51.378;-1.342;2022-09-21T04:49:39;101261.09;;;19.87;35.57
67803;BME280;54601;51.378;-1.342;2022-09-21T04:52:05;101264.27;;;19.71;35.77
67803;BME280;54601;51.378;-1.342;2022-09-21T04:54:31;101260.87;;;20.19;35.77
67803;BME280;54601;51.378;-1.342;2022-09-21T04:56:57;101261.69;;;19.66;35.82
67803;BME280;54601;51.378;-1.342;2022-09-21T04:59:23;101260.83;;;19.92;35.84
67803;BME280;54601;51.378;-1.342;2022-09-21T05:01:49;101259.72;;;19.74;35.72
67803;BME280;54601;51.378;-1.342;2022-09-21T05:04:14;101256.92;;;20.03;35.68
67803;BME280;54601;51.378;-1.342;2022-09-21T05:06:40;101257.89;;;19.80;35.64
67803;BME280;54601;51.378;-1.342;2022-09-21T05:09:07;101256.34;;;19.69;35.74
67803;BME280;54601;51.378;-1.342;2022-09-21T05:11:31;101259.28;;;19.80;35.62
67803;BME280;54601;51.378;-1.342;2022-09-21T05:13:57;101259.68;;;19.70;35.72
67803;BME280;54601;51.378;-1.342;2022-09-21T05:16:23;101259.85;;;19.64;35.79
67803;BME280;54601;51.378;-1.342;2022-09-21T05:18:52;101260.17;;;19.73;35.67
67803;BME280;54601;51.378;-1.342;2022-09-21T05:21:15;101261.47;;;19.93;35.75
67803;BME280;54601;51.378;-1.342;2022-09-21T05:23:41;101261.14;;;19.97;35.70
67803;BME280;54601;51.378;-1.342;2022-09-21T05:26:07;101261.56;;;19.85;35.47
67803;BME280;54601;51.378;-1.342;2022-09-21T05:28:34;101260.48;;;20.20;35.40
67803;BME280;54601;51.378;-1.342;2022-09-21T05:31:03;101260.19;;;20.04;35.55
67803;BME280;54601;51.378;-1.342;2022-09-21T05:33:27;101260.14;;;20.21;35.61
67803;BME280;54601;51.378;-1.342;2022-09-21T05:35:59;101263.09;;;19.95;35.63
67803;BME280;54601;51.378;-1.342;2022-09-21T05:38:18;101263.34;;;19.67;35.64
67803;BME280;54601;51.378;-1.342;2022-09-21T05:40:44;101266.29;;;19.83;35.41
67803;BME280;54601;51.378;-1.342;2022-09-21T05:43:10;101266.93;;;20.01;35.52
67803;BME280;54601;51.378;-1.342;2022-09-21T05:45:37;101271.55;;;19.96;35.53
67803;BME280;54601;51.378;-1.342;2022-09-21T05:48:08;101271.84;;;19.90;35.62
67803;BME280;54601;51.378;-1.342;2022-09-21T05:50:36;101273.94;;;20.00;35.48
67803;BME280;54601;51.378;-1.342;2022-09-21T05:52:57;101275.24;;;19.84;35.33
67803;BME280;54601;51.378;-1.342;2022-09-21T05:55:26;101277.28;;;19.83;35.32
67803;BME280;54601;51.378;-1.342;2022-09-21T05:57:50;101277.78;;;20.15;35.17
67803;BME280;54601;51.378;-1.342;2022-09-21T06:00:15;101277.38;;;19.91;35.48
67803;BME280;54601;51.378;-1.342;2022-09-21T06:02:46;101279.15;;;20.33;35.22
67803;BME280;54601;51.378;-1.342;2022-09-21T06:05:06;101276.57;;;20.04;35.29
67803;BME280;54601;51.378;-1.342;2022-09-21T06:07:28;101275.72;;;20.23;35.29
67803;BME280;54601;51.378;-1.342;2022-09-21T06:09:54;101273.60;;;20.19;35.36
67803;BME280;54601;51.378;-1.342;2022-09-21T06:12:20;101276.03;;;20.24;35.31
67803;BME280;54601;51.378;-1.342;2022-09-21T06:14:46;101275.70;;;20.19;35.33
67803;BME280;54601;51.378;-1.342;2022-09-21T06:17:11;101277.07;;;20.01;35.29
67803;BME280;54601;51.378;-1.342;2022-09-21T06:19:36;101278.63;;;19.85;35.44
67803;BME280;54601;51.378;-1.342;2022-09-21T06:22:01;101280.38;;;19.54;35.53
67803;BME280;54601;51.378;-1.342;2022-09-21T06:24:27;101276.40;;;19.91;35.37
67803;BME280;54601;51.378;-1.342;2022-09-21T06:26:52;101278.66;;;19.89;35.38
67803;BME280;54601;51.378;-1.342;2022-09-21T06:29:17;101282.03;;;20.09;35.43
67803;BME280;54601;51.378;-1.342;2022-09-21T06:31:42;101279.10;;;19.91;35.35
67803;BME280;54601;51.378;-1.342;2022-09-21T06:34:08;101282.96;;;20.05;35.49
67803;BME280;54601;51.378;-1.342;2022-09-21T06:36:34;101284.55;;;19.83;35.46
67803;BME280;54601;51.378;-1.342;2022-09-21T06:39:00;101284.03;;;19.88;35.48
67803;BME280;54601;51.378;-1.342;2022-09-21T06:41:26;101287.38;;;19.92;35.38
67803;BME280;54601;51.378;-1.342;2022-09-21T06:43:53;101288.26;;;20.10;35.45
67803;BME280;54601;51.378;-1.342;2022-09-21T06:46:17;101290.07;;;20.00;35.56
67803;BME280;54601;51.378;-1.342;2022-09-21T06:48:42;101287.22;;;19.69;35.68
67803;BME280;54601;51.378;-1.342;2022-09-21T06:51:08;101285.52;;;19.82;35.50
67803;BME280;54601;51.378;-1.342;2022-09-21T06:53:33;101289.65;;;19.59;35.45
67803;BME280;54601;51.378;-1.342;2022-09-21T06:56:02;101291.93;;;19.90;35.39
67803;BME280;54601;51.378;-1.342;2022-09-21T06:58:23;101290.41;;;19.92;35.37
67803;BME280;54601;51.378;-1.342;2022-09-21T07:00:48;101288.14;;;19.86;35.47
67803;BME280;54601;51.378;-1.342;2022-09-21T07:03:13;101286.32;;;19.60;35.77
67803;BME280;54601;51.378;-1.342;2022-09-21T07:05:39;101287.74;;;19.60;35.84
67803;BME280;54601;51.378;-1.342;2022-09-21T07:08:04;101288.63;;;19.42;35.75
67803;BME280;54601;51.378;-1.342;2022-09-21T07:10:29;101286.95;;;19.85;35.87
67803;BME280;54601;51.378;-1.342;2022-09-21T07:12:54;101290.44;;;19.49;35.69
67803;BME280;54601;51.378;-1.342;2022-09-21T07:15:19;101288.74;;;19.78;35.96
67803;BME280;54601;51.378;-1.342;2022-09-21T07:17:44;101287.89;;;19.57;35.99
67803;BME280;54601;51.378;-1.342;2022-09-21T07:20:09;101283.64;;;19.58;35.97
67803;BME280;54601;51.378;-1.342;2022-09-21T07:22:34;101283.48;;;19.55;36.02
67803;BME280;54601;51.378;-1.342;2022-09-21T07:24:59;101284.84;;;19.52;36.05
67803;BME280;54601;51.378;-1.342;2022-09-21T07:27:25;101286.50;;;19.76;36.06
67803;BME280;54601;51.378;-1.342;2022-09-21T07:29:49;101286.85;;;19.58;36.03
67803;BME280;54601;51.378;-1.342;2022-09-21T07:32:14;101287.18;;;19.43;35.89
67803;BME280;54601;51.378;-1.342;2022-09-21T07:34:39;101285.72;;;19.84;35.72
67803;BME280;54601;51.378;-1.342;2022-09-21T07:37:04;101285.33;;;19.86;35.66
67803;BME280;54601;51.378;-1.342;2022-09-21T07:39:29;101287.31;;;20.07;35.71
67803;BME280;54601;51.378;-1.342;2022-09-21T07:41:54;101286.49;;;19.71;35.52
67803;BME280;54601;51.378;-1.342;2022-09-21T07:44:19;101286.38;;;19.75;35.47
67803;BME280;54601;51.378;-1.342;2022-09-21T07:46:46;101284.23;;;19.72;35.55
67803;BME280;54601;51.378;-1.342;2022-09-21T07:49:10;101285.02;;;20.12;35.36
67803;BME280;54601;51.378;-1.342;2022-09-21T07:51:34;101283.44;;;20.07;35.44
67803;BME280;54601;51.378;-1.342;2022-09-21T07:53:59;101284.61;;;20.08;35.44
67803;BME280;54601;51.378;-1.342;2022-09-21T07:56:24;101284.33;;;20.13;35.39
67803;BME280;54601;51.378;-1.342;2022-09-21T07:58:50;101279.96;;;18.79;35.56
67803;BME280;54601;51.378;-1.342;2022-09-21T08:01:15;101278.20;;;20.24;34.92
67803;BME280;54601;51.378;-1.342;2022-09-21T08:03:40;101280.02;;;20.04;35.17
67803;BME280;54601;51.378;-1.342;2022-09-21T08:06:05;101281.92;;;20.22;35.36
67803;BME280;54601;51.378;-1.342;2022-09-21T08:08:30;101281.88;;;20.41;35.29
67803;BME280;54601;51.378;-1.342;2022-09-21T08:10:55;101281.34;;;20.37;35.27
67803;BME280;54601;51.378;-1.342;2022-09-21T08:13:20;101282.06;;;20.37;35.46
67803;BME280;54601;51.378;-1.342;2022-09-21T08:15:45;101281.99;;;20.18;35.41
67803;BME280;54601;51.378;-1.342;2022-09-21T08:18:10;101282.08;;;20.37;35.64
67803;BME280;54601;51.378;-1.342;2022-09-21T08:20:35;101282.61;;;20.36;35.75
67803;BME280;54601;51.378;-1.342;2022-09-21T08:23:00;101282.58;;;20.13;35.71
67803;BME280;54601;51.378;-1.342;2022-09-21T08:25:25;101281.98;;;20.21;35.59
67803;BME280;54601;51.378;-1.342;2022-09-21T08:27:50;101281.47;;;20.30;35.53
67803;BME280;54601;51.378;-1.342;2022-09-21T08:30:15;101280.90;;;20.85;35.48
67803;BME280;54601;51.378;-1.342;2022-09-21T08:32:40;101280.00;;;20.68;35.48
67803;BME280;54601;51.378;-1.342;2022-09-21T08:35:06;101280.77;;;20.46;35.49
67803;BME280;54601;51.378;-1.342;2022-09-21T08:37:30;101281.26;;;20.54;35.39
67803;BME280;54601;51.378;-1.342;2022-09-21T08:39:56;101279.28;;;20.57;35.38
67803;BME280;54601;51.378;-1.342;2022-09-21T08:42:32;101281.06;;;20.40;35.32
67803;BME280;54601;51.378;-1.342;2022-09-21T08:44:53;101282.48;;;20.72;35.28
67803;BME280;54601;51.378;-1.342;2022-09-21T08:47:17;101281.29;;;20.58;35.22
67803;BME280;54601;51.378;-1.342;2022-09-21T08:49:44;101280.65;;;20.82;35.30
67803;BME280;54601;51.378;-1.342;2022-09-21T08:52:11;101280.24;;;20.60;35.43
67803;BME280;54601;51.378;-1.342;2022-09-21T08:54:39;101282.10;;;20.90;35.34
67803;BME280;54601;51.378;-1.342;2022-09-21T08:56:58;101283.84;;;20.99;35.26
67803;BME280;54601;51.378;-1.342;2022-09-21T08:59:24;101283.15;;;21.03;35.25
67803;BME280;54601;51.378;-1.342;2022-09-21T09:01:56;101283.24;;;21.06;35.28
67803;BME280;54601;51.378;-1.342;2022-09-21T09:04:25;101284.63;;;20.64;35.33
67803;BME280;54601;51.378;-1.342;2022-09-21T09:06:47;101288.48;;;21.17;35.25
67803;BME280;54601;51.378;-1.342;2022-09-21T09:09:21;101289.21;;;21.01;35.20
67803;BME280;54601;51.378;-1.342;2022-09-21T09:11:44;101287.02;;;21.11;35.08
67803;BME280;54601;51.378;-1.342;2022-09-21T09:14:09;101290.10;;;20.92;35.04
67803;BME280;54601;51.378;-1.342;2022-09-21T09:16:32;101289.13;;;21.42;34.99
67803;BME280;54601;51.378;-1.342;2022-09-21T09:18:54;101287.30;;;21.00;34.97
67803;BME280;54601;51.378;-1.342;2022-09-21T09:21:22;101287.81;;;21.11;34.80
67803;BME280;54601;51.378;-1.342;2022-09-21T09:23:47;101286.71;;;21.10;34.82
67803;BME280;54601;51.378;-1.342;2022-09-21T09:26:13;101288.61;;;21.18;34.73
67803;BME280;54601;51.378;-1.342;2022-09-21T09:28:40;101289.47;;;21.66;34.63
67803;BME280;54601;51.378;-1.342;2022-09-21T09:31:05;101284.80;;;21.30;34.52
67803;BME280;54601;51.378;-1.342;2022-09-21T09:33:33;101286.00;;;21.57;34.28
67803;BME280;54601;51.378;-1.342;2022-09-21T09:35:59;101284.42;;;21.43;34.07
67803;BME280;54601;51.378;-1.342;2022-09-21T09:38:26;101282.63;;;21.43;33.99
67803;BME280;54601;51.378;-1.342;2022-09-21T09:41:01;101283.24;;;21.52;33.80
67803;BME280;54601;51.378;-1.342;2022-09-21T09:43:16;101281.63;;;21.58;33.62
67803;BME280;54601;51.378;-1.342;2022-09-21T09:45:44;101280.78;;;21.65;33.67
67803;BME280;54601;51.378;-1.342;2022-09-21T09:48:14;101282.33;;;21.67;33.78
67803;BME280;54601;51.378;-1.342;2022-09-21T09:50:32;101285.06;;;21.68;33.83
67803;BME280;54601;51.378;-1.342;2022-09-21T09:52:59;101284.09;;;21.79;33.34
67803;BME280;54601;51.378;-1.342;2022-09-21T09:55:23;101283.28;;;21.75;33.36
67803;BME280;54601;51.378;-1.342;2022-09-21T09:57:47;101281.96;;;21.77;33.37
67803;BME280;54601;51.378;-1.342;2022-09-21T10:00:14;101281.72;;;21.79;33.16
67803;BME280;54601;51.378;-1.342;2022-09-21T10:02:44;101280.37;;;21.73;33.25
67803;BME280;54601;51.378;-1.342;2022-09-21T10:05:05;101279.48;;;21.68;33.34
67803;BME280;54601;51.378;-1.342;2022-09-21T10:07:34;101285.21;;;21.88;33.28
67803;BME280;54601;51.378;-1.342;2022-09-21T10:09:56;101284.21;;;21.64;33.32
67803;BME280;54601;51.378;-1.342;2022-09-21T10:12:24;101284.98;;;21.62;33.41
67803;BME280;54601;51.378;-1.342;2022-09-21T10:14:49;101285.79;;;21.65;33.45
67803;BME280;54601;51.378;-1.342;2022-09-21T10:17:16;101287.14;;;21.65;33.40
67803;BME280;54601;51.378;-1.342;2022-09-21T10:19:40;101284.25;;;21.65;33.49
67803;BME280;54601;51.378;-1.342;2022-09-21T10:22:06;101282.93;;;21.63;33.67
67803;BME280;54601;51.378;-1.342;2022-09-21T10:24:34;101281.76;;;21.63;33.61
67803;BME280;54601;51.378;-1.342;2022-09-21T10:27:04;101279.60;;;21.62;33.53
67803;BME280;54601;51.378;-1.342;2022-09-21T10:29:30;101278.83;;;21.64;33.60
67803;BME280;54601;51.378;-1.342;2022-09-21T10:31:54;101280.07;;;21.73;33.55
67803;BME280;54601;51.378;-1.342;2022-09-21T10:34:15;101277.62;;;22.03;33.43
67803;BME280;54601;51.378;-1.342;2022-09-21T10:36:48;101277.25;;;21.84;33.30
67803;BME280;54601;51.378;-1.342;2022-09-21T10:41:36;101279.46;;;21.82;33.19
67803;BME280;54601;51.378;-1.342;2022-09-21T10:43:59;101280.86;;;21.78;33.18
67803;BME280;54601;51.378;-1.342;2022-09-21T10:46:31;101278.94;;;21.72;33.25
67803;BME280;54601;51.378;-1.342;2022-09-21T10:48:51;101277.95;;;21.71;33.25
67803;BME280;54601;51.378;-1.342;2022-09-21T10:51:26;101277.20;;;21.90;33.27
67803;BME280;54601;51.378;-1.342;2022-09-21T10:53:47;101273.44;;;21.42;33.18
67803;BME280;54601;51.378;-1.342;2022-09-21T10:56:15;101275.42;;;21.66;33.27
67803;BME280;54601;51.378;-1.342;2022-09-21T10:58:35;101274.38;;;21.66;33.30
67803;BME280;54601;51.378;-1.342;2022-09-21T11:01:09;101271.91;;;21.68;33.32
67803;BME280;54601;51.378;-1.342;2022-09-21T11:03:38;101268.89;;;21.62;33.38
67803;BME280;54601;51.378;-1.342;2022-09-21T11:05:53;101267.45;;;21.67;33.23
67803;BME280;54601;51.378;-1.342;2022-09-21T11:08:22;101268.32;;;21.34;33.16
67803;BME280;54601;51.378;-1.342;2022-09-21T11:10:48;101267.98;;;21.62;33.05
67803;BME280;54601;51.378;-1.342;2022-09-21T11:13:22;101269.44;;;21.58;33.15
67803;BME280;54601;51.378;-1.342;2022-09-21T11:15:43;101262.97;;;21.58;33.18
67803;BME280;54601;51.378;-1.342;2022-09-21T11:18:07;101257.61;;;21.61;33.20
67803;BME280;54601;51.378;-1.342;2022-09-21T11:20:33;101252.19;;;21.57;33.31
67803;BME280;54601;51.378;-1.342;2022-09-21T11:23:01;101249.28;;;21.55;33.36
67803;BME280;54601;51.378;-1.342;2022-09-21T11:25:26;101247.81;;;21.79;33.33
67803;BME280;54601;51.378;-1.342;2022-09-21T11:27:52;101245.12;;;21.54;33.33
67803;BME280;54601;51.378;-1.342;2022-09-21T11:30:13;101245.39;;;21.52;33.36
67803;BME280;54601;51.378;-1.342;2022-09-21T11:32:51;101242.33;;;21.52;33.19
67803;BME280;54601;51.378;-1.342;2022-09-21T11:37:42;101239.37;;;21.50;33.01
67803;BME280;54601;51.378;-1.342;2022-09-21T11:40:06;101238.07;;;21.50;32.90
67803;BME280;54601;51.378;-1.342;2022-09-21T11:42:33;101233.53;;;21.51;33.01
67803;BME280;54601;51.378;-1.342;2022-09-21T11:44:51;101231.41;;;21.50;33.23
67803;BME280;54601;51.378;-1.342;2022-09-21T11:49:51;101227.06;;;21.49;33.40
67803;BME280;54601;51.378;-1.342;2022-09-21T11:52:20;101223.85;;;21.48;33.30
67803;BME280;54601;51.378;-1.342;2022-09-21T11:54:45;101220.92;;;21.49;33.37
67803;BME280;54601;51.378;-1.342;2022-09-21T11:57:00;101220.72;;;21.49;33.37
67803;BME280;54601;51.378;-1.342;2022-09-21T11:59:35;101216.15;;;21.47;33.33
67803;BME280;54601;51.378;-1.342;2022-09-21T12:02:01;101211.86;;;21.46;33.31
67803;BME280;54601;51.378;-1.342;2022-09-21T12:04:27;101211.92;;;21.45;33.36
67803;BME280;54601;51.378;-1.342;2022-09-21T12:06:51;101209.03;;;21.43;33.33
67803;BME280;54601;51.378;-1.342;2022-09-21T12:09:17;101207.67;;;21.45;33.28
67803;BME280;54601;51.378;-1.342;2022-09-21T12:11:37;101205.27;;;21.50;33.15
67803;BME280;54601;51.378;-1.342;2022-09-21T12:14:06;101203.42;;;21.46;33.16
67803;BME280;54601;51.378;-1.342;2022-09-21T12:16:31;101203.25;;;21.47;32.98
67803;BME280;54601;51.378;-1.342;2022-09-21T12:18:58;101200.39;;;21.41;33.13
67803;BME280;54601;51.378;-1.342;2022-09-21T12:21:19;101199.63;;;21.66;33.00
67803;BME280;54601;51.378;-1.342;2022-09-21T12:23:45;101197.85;;;21.40;32.96
67803;BME280;54601;51.378;-1.342;2022-09-21T12:26:09;101197.09;;;21.43;33.00
67803;BME280;54601;51.378;-1.342;2022-09-21T12:28:39;101195.69;;;21.38;33.13
67803;BME280;54601;51.378;-1.342;2022-09-21T12:31:03;101192.66;;;21.42;33.05
67803;BME280;54601;51.378;-1.342;2022-09-21T12:33:33;101191.98;;;21.46;32.91
67803;BME280;54601;51.378;-1.342;2022-09-21T12:35:55;101191.73;;;21.66;33.08
67803;BME280;54601;51.378;-1.342;2022-09-21T12:38:21;101188.53;;;21.40;33.12
67803;BME280;54601;51.378;-1.342;2022-09-21T12:40:48;101186.11;;;21.37;33.08